Rechercher aéroport 
image banner adimage banner adimage banner ad
image banner ad

9PN1 - Seitz Field

Situé à Perryopolis, United States

ICAO - 9PN1, IATA -

Données fournies par Airmate  

Information générale

Coordonnées: N40°2'20" W79°47'24"
Élévation : 1240 feet MSL.
Variation magnétique : -08° East
Voir autres Aéroports à Pennsylvania

Données opérationnelles

Special qualification required
Heure actuelle UTC:
Heure actuelle locale:
Météo à : KAGC - Allegheny County ( 37 km )
METAR: KAGC 132053Z 18008KT 6SM HZ FEW050 SCT060 SCT080 26/22 A2982 RMK AO2 TSB07E22 SLP095 T02560217 56010
TAF: KAGC 131720Z 1318/1418 26005KT P6SM VCTS BKN050CB TEMPO 1319/1322 4SM -TSRA OVC040CB FM140000 24004KT P6SM SCT060 FM140800 00000KT 3SM BR SCT250 FM141400 25005KT P6SM SCT040
Voir NOTAMs / SUP AIP / TFR affectant cet aéroport [VIEW]
Fréquences de communication: [VIEW]

Pistes:

Identifiant RWYQFULongueur (ft)Largeur (ft)SurfaceLDA (ft)
161500100GRASS
341500100GRASS

Coordonnées de l'aéroport

Adresse: Perryopolis United States

Vue satellite de 9PN1